Elsmere, Kentucky
Current Conditions -  °F | °C
As of 7:52 AM on Saturday 22 Nov 2014 (Local Time) from KCVG Reporting Station
Overcast Overcast  
Wind Chill: 31°   Ceiling: 7000
Heat Index: 38°   Visibility: 10mi
Dew Point: 27°   Wind: 9mph
Humidity: 65%   Direction: 190°S
Pressure: 30.27"   Gusts: NA
Location:  39.017°N, 84.607°W
Report Text: KCVG 221252Z 19008KT 10SM OVC070 03/M03 A3027 RMK AO2 RAB1159E12 SLP255 OCNL BINOVC P0000 T00331028
Loading
Personal Weather Stations






























Interactive Weather Map New forecast layout! Learn more

10-Day Weather Forecast

Advertisements
Track Severe Weather on mobile